sensor_id;sensor_type;location;lat;lon;timestamp;P1;durP1;ratioP1;P2;durP2;ratioP2
56860;SDS011;42744;51.094;3.490;2024-03-06T00:00:05;22.90;;;16.97;;
56860;SDS011;42744;51.094;3.490;2024-03-06T00:02:34;21.73;;;16.77;;
56860;SDS011;42744;51.094;3.490;2024-03-06T00:05:01;22.07;;;16.83;;
56860;SDS011;42744;51.094;3.490;2024-03-06T00:07:27;21.93;;;15.87;;
56860;SDS011;42744;51.094;3.490;2024-03-06T00:09:54;20.93;;;15.93;;
56860;SDS011;42744;51.094;3.490;2024-03-06T00:12:19;21.67;;;15.83;;
56860;SDS011;42744;51.094;3.490;2024-03-06T00:14:45;18.83;;;15.93;;
56860;SDS011;42744;51.094;3.490;2024-03-06T00:17:12;20.47;;;15.13;;
56860;SDS011;42744;51.094;3.490;2024-03-06T00:19:37;24.17;;;16.00;;
56860;SDS011;42744;51.094;3.490;2024-03-06T00:22:04;20.20;;;15.07;;
56860;SDS011;42744;51.094;3.490;2024-03-06T00:24:30;20.07;;;14.83;;
56860;SDS011;42744;51.094;3.490;2024-03-06T00:26:57;21.37;;;15.10;;
56860;SDS011;42744;51.094;3.490;2024-03-06T00:29:23;24.43;;;15.70;;
56860;SDS011;42744;51.094;3.490;2024-03-06T00:31:51;18.47;;;14.33;;
56860;SDS011;42744;51.094;3.490;2024-03-06T00:34:17;20.33;;;15.20;;
56860;SDS011;42744;51.094;3.490;2024-03-06T00:36:43;17.57;;;14.20;;
56860;SDS011;42744;51.094;3.490;2024-03-06T00:39:09;22.07;;;14.13;;
56860;SDS011;42744;51.094;3.490;2024-03-06T00:41:36;18.53;;;14.13;;
56860;SDS011;42744;51.094;3.490;2024-03-06T00:44:02;17.97;;;14.33;;
56860;SDS011;42744;51.094;3.490;2024-03-06T00:46:29;20.43;;;14.30;;
56860;SDS011;42744;51.094;3.490;2024-03-06T00:48:54;18.67;;;14.47;;
56860;SDS011;42744;51.094;3.490;2024-03-06T00:51:20;20.33;;;14.33;;
56860;SDS011;42744;51.094;3.490;2024-03-06T00:53:47;21.00;;;15.30;;
56860;SDS011;42744;51.094;3.490;2024-03-06T00:56:12;22.37;;;14.47;;
56860;SDS011;42744;51.094;3.490;2024-03-06T00:58:38;17.83;;;14.20;;
56860;SDS011;42744;51.094;3.490;2024-03-06T01:01:05;18.73;;;13.97;;
56860;SDS011;42744;51.094;3.490;2024-03-06T01:03:30;21.47;;;14.53;;
56860;SDS011;42744;51.094;3.490;2024-03-06T01:05:56;18.40;;;14.17;;
56860;SDS011;42744;51.094;3.490;2024-03-06T01:08:25;18.70;;;13.77;;
56860;SDS011;42744;51.094;3.490;2024-03-06T01:10:51;19.67;;;15.13;;
56860;SDS011;42744;51.094;3.490;2024-03-06T01:13:17;20.13;;;14.17;;
56860;SDS011;42744;51.094;3.490;2024-03-06T01:15:44;19.90;;;14.40;;
56860;SDS011;42744;51.094;3.490;2024-03-06T01:18:10;16.93;;;13.80;;
56860;SDS011;42744;51.094;3.490;2024-03-06T01:20:36;17.27;;;13.83;;
56860;SDS011;42744;51.094;3.490;2024-03-06T01:23:03;18.33;;;14.33;;
56860;SDS011;42744;51.094;3.490;2024-03-06T01:25:29;17.87;;;13.97;;
56860;SDS011;42744;51.094;3.490;2024-03-06T01:27:55;18.87;;;14.27;;
56860;SDS011;42744;51.094;3.490;2024-03-06T01:30:21;17.63;;;14.87;;
56860;SDS011;42744;51.094;3.490;2024-03-06T01:32:47;19.37;;;14.40;;
56860;SDS011;42744;51.094;3.490;2024-03-06T01:35:13;17.37;;;14.23;;
56860;SDS011;42744;51.094;3.490;2024-03-06T01:37:40;23.10;;;14.37;;
56860;SDS011;42744;51.094;3.490;2024-03-06T01:40:06;19.40;;;14.37;;
56860;SDS011;42744;51.094;3.490;2024-03-06T01:42:32;15.90;;;12.80;;
56860;SDS011;42744;51.094;3.490;2024-03-06T01:44:59;17.27;;;14.23;;
56860;SDS011;42744;51.094;3.490;2024-03-06T01:47:25;17.57;;;14.30;;
56860;SDS011;42744;51.094;3.490;2024-03-06T01:49:51;18.93;;;13.87;;
56860;SDS011;42744;51.094;3.490;2024-03-06T01:52:17;18.23;;;13.80;;
56860;SDS011;42744;51.094;3.490;2024-03-06T01:54:46;21.97;;;14.80;;
56860;SDS011;42744;51.094;3.490;2024-03-06T01:57:15;16.63;;;14.53;;
56860;SDS011;42744;51.094;3.490;2024-03-06T01:59:42;20.77;;;15.57;;
56860;SDS011;42744;51.094;3.490;2024-03-06T02:02:08;20.23;;;15.30;;
56860;SDS011;42744;51.094;3.490;2024-03-06T02:04:37;23.50;;;14.97;;
56860;SDS011;42744;51.094;3.490;2024-03-06T02:07:03;22.57;;;14.83;;
56860;SDS011;42744;51.094;3.490;2024-03-06T02:09:36;19.33;;;14.67;;
56860;SDS011;42744;51.094;3.490;2024-03-06T02:12:03;16.90;;;13.63;;
56860;SDS011;42744;51.094;3.490;2024-03-06T02:14:29;18.10;;;14.90;;
56860;SDS011;42744;51.094;3.490;2024-03-06T02:16:58;19.70;;;15.40;;
56860;SDS011;42744;51.094;3.490;2024-03-06T02:19:24;19.87;;;16.23;;
56860;SDS011;42744;51.094;3.490;2024-03-06T02:21:52;20.07;;;14.47;;
56860;SDS011;42744;51.094;3.490;2024-03-06T02:24:20;19.17;;;14.47;;
56860;SDS011;42744;51.094;3.490;2024-03-06T02:26:49;17.57;;;14.70;;
56860;SDS011;42744;51.094;3.490;2024-03-06T02:29:18;19.57;;;14.30;;
56860;SDS011;42744;51.094;3.490;2024-03-06T02:31:44;16.47;;;13.70;;
56860;SDS011;42744;51.094;3.490;2024-03-06T02:34:10;19.77;;;13.80;;
56860;SDS011;42744;51.094;3.490;2024-03-06T02:36:36;19.63;;;13.60;;
56860;SDS011;42744;51.094;3.490;2024-03-06T02:39:02;18.80;;;14.20;;
56860;SDS011;42744;51.094;3.490;2024-03-06T02:41:37;18.20;;;14.67;;
56860;SDS011;42744;51.094;3.490;2024-03-06T02:44:03;22.43;;;14.73;;
56860;SDS011;42744;51.094;3.490;2024-03-06T02:46:29;18.77;;;14.27;;
56860;SDS011;42744;51.094;3.490;2024-03-06T02:48:55;18.17;;;14.50;;
56860;SDS011;42744;51.094;3.490;2024-03-06T02:51:21;18.80;;;14.97;;
56860;SDS011;42744;51.094;3.490;2024-03-06T02:53:47;22.73;;;15.03;;
56860;SDS011;42744;51.094;3.490;2024-03-06T02:56:18;16.30;;;13.20;;
56860;SDS011;42744;51.094;3.490;2024-03-06T02:58:45;15.77;;;13.43;;
56860;SDS011;42744;51.094;3.490;2024-03-06T03:01:11;17.13;;;13.10;;
56860;SDS011;42744;51.094;3.490;2024-03-06T03:03:42;13.67;;;12.10;;
56860;SDS011;42744;51.094;3.490;2024-03-06T03:06:09;16.23;;;12.90;;
56860;SDS011;42744;51.094;3.490;2024-03-06T03:08:36;17.43;;;12.30;;
56860;SDS011;42744;51.094;3.490;2024-03-06T03:11:03;16.93;;;13.10;;
56860;SDS011;42744;51.094;3.490;2024-03-06T03:13:29;15.83;;;13.17;;
56860;SDS011;42744;51.094;3.490;2024-03-06T03:15:59;15.80;;;13.87;;
56860;SDS011;42744;51.094;3.490;2024-03-06T03:18:25;15.10;;;12.50;;
56860;SDS011;42744;51.094;3.490;2024-03-06T03:20:52;17.97;;;13.77;;
56860;SDS011;42744;51.094;3.490;2024-03-06T03:23:17;17.20;;;14.30;;
56860;SDS011;42744;51.094;3.490;2024-03-06T03:25:50;21.10;;;13.80;;
56860;SDS011;42744;51.094;3.490;2024-03-06T03:28:16;19.30;;;14.33;;
56860;SDS011;42744;51.094;3.490;2024-03-06T03:30:42;17.43;;;13.40;;
56860;SDS011;42744;51.094;3.490;2024-03-06T03:33:12;20.70;;;14.13;;
56860;SDS011;42744;51.094;3.490;2024-03-06T03:35:38;17.57;;;14.03;;
56860;SDS011;42744;51.094;3.490;2024-03-06T03:38:07;18.33;;;13.83;;
56860;SDS011;42744;51.094;3.490;2024-03-06T03:40:36;17.23;;;14.23;;
56860;SDS011;42744;51.094;3.490;2024-03-06T03:43:02;16.13;;;12.83;;
56860;SDS011;42744;51.094;3.490;2024-03-06T03:45:35;15.73;;;12.77;;
56860;SDS011;42744;51.094;3.490;2024-03-06T03:48:01;16.50;;;13.73;;
56860;SDS011;42744;51.094;3.490;2024-03-06T03:50:28;17.07;;;12.87;;
56860;SDS011;42744;51.094;3.490;2024-03-06T03:52:55;15.40;;;13.30;;
56860;SDS011;42744;51.094;3.490;2024-03-06T03:55:26;13.50;;;11.53;;
56860;SDS011;42744;51.094;3.490;2024-03-06T03:57:55;16.07;;;12.47;;
56860;SDS011;42744;51.094;3.490;2024-03-06T04:00:22;13.53;;;12.10;;
56860;SDS011;42744;51.094;3.490;2024-03-06T04:02:52;16.73;;;13.23;;
56860;SDS011;42744;51.094;3.490;2024-03-06T04:05:18;14.77;;;12.60;;
56860;SDS011;42744;51.094;3.490;2024-03-06T04:07:44;18.37;;;13.93;;
56860;SDS011;42744;51.094;3.490;2024-03-06T04:10:10;19.20;;;14.33;;
56860;SDS011;42744;51.094;3.490;2024-03-06T04:12:39;20.50;;;15.57;;
56860;SDS011;42744;51.094;3.490;2024-03-06T04:15:05;20.63;;;15.93;;
56860;SDS011;42744;51.094;3.490;2024-03-06T04:17:31;27.20;;;17.87;;
56860;SDS011;42744;51.094;3.490;2024-03-06T04:19:57;41.57;;;21.20;;
56860;SDS011;42744;51.094;3.490;2024-03-06T04:22:23;33.47;;;19.93;;
56860;SDS011;42744;51.094;3.490;2024-03-06T04:24:49;72.90;;;24.03;;
56860;SDS011;42744;51.094;3.490;2024-03-06T04:27:15;91.77;;;27.47;;
56860;SDS011;42744;51.094;3.490;2024-03-06T04:29:42;59.53;;;26.17;;
56860;SDS011;42744;51.094;3.490;2024-03-06T04:32:08;72.60;;;27.27;;
56860;SDS011;42744;51.094;3.490;2024-03-06T04:34:36;116.27;;;31.70;;
56860;SDS011;42744;51.094;3.490;2024-03-06T04:37:02;101.57;;;29.47;;
56860;SDS011;42744;51.094;3.490;2024-03-06T04:39:28;50.40;;;25.73;;
56860;SDS011;42744;51.094;3.490;2024-03-06T04:41:57;64.80;;;26.73;;
56860;SDS011;42744;51.094;3.490;2024-03-06T04:44:23;63.07;;;27.37;;
56860;SDS011;42744;51.094;3.490;2024-03-06T04:46:50;101.13;;;29.37;;
56860;SDS011;42744;51.094;3.490;2024-03-06T04:49:16;70.90;;;27.73;;
56860;SDS011;42744;51.094;3.490;2024-03-06T04:51:42;136.20;;;31.50;;
56860;SDS011;42744;51.094;3.490;2024-03-06T04:54:08;77.37;;;31.60;;
56860;SDS011;42744;51.094;3.490;2024-03-06T04:56:34;255.20;;;40.63;;
56860;SDS011;42744;51.094;3.490;2024-03-06T04:59:02;58.83;;;28.97;;
56860;SDS011;42744;51.094;3.490;2024-03-06T05:01:31;113.80;;;31.10;;
56860;SDS011;42744;51.094;3.490;2024-03-06T05:04:00;153.50;;;34.17;;
56860;SDS011;42744;51.094;3.490;2024-03-06T05:06:25;227.57;;;40.17;;
56860;SDS011;42744;51.094;3.490;2024-03-06T05:08:52;283.43;;;41.47;;
56860;SDS011;42744;51.094;3.490;2024-03-06T05:11:17;129.50;;;33.23;;
56860;SDS011;42744;51.094;3.490;2024-03-06T05:13:43;167.10;;;35.03;;
56860;SDS011;42744;51.094;3.490;2024-03-06T05:16:09;153.43;;;35.40;;
56860;SDS011;42744;51.094;3.490;2024-03-06T05:18:35;164.63;;;35.43;;
56860;SDS011;42744;51.094;3.490;2024-03-06T05:21:01;170.80;;;37.03;;
56860;SDS011;42744;51.094;3.490;2024-03-06T05:23:27;160.83;;;37.63;;
56860;SDS011;42744;51.094;3.490;2024-03-06T05:25:53;203.50;;;38.27;;
56860;SDS011;42744;51.094;3.490;2024-03-06T05:28:19;149.83;;;35.87;;
56860;SDS011;42744;51.094;3.490;2024-03-06T05:30:45;120.27;;;35.57;;
56860;SDS011;42744;51.094;3.490;2024-03-06T05:33:11;215.20;;;39.63;;
56860;SDS011;42744;51.094;3.490;2024-03-06T05:35:40;195.90;;;39.77;;
56860;SDS011;42744;51.094;3.490;2024-03-06T05:38:08;209.37;;;38.97;;
56860;SDS011;42744;51.094;3.490;2024-03-06T05:40:33;177.63;;;37.23;;
56860;SDS011;42744;51.094;3.490;2024-03-06T05:43:02;128.43;;;33.37;;
56860;SDS011;42744;51.094;3.490;2024-03-06T05:45:29;219.80;;;40.27;;
56860;SDS011;42744;51.094;3.490;2024-03-06T05:47:55;178.17;;;36.87;;
56860;SDS011;42744;51.094;3.490;2024-03-06T05:50:21;214.60;;;39.13;;
56860;SDS011;42744;51.094;3.490;2024-03-06T05:52:48;184.37;;;37.13;;
56860;SDS011;42744;51.094;3.490;2024-03-06T05:55:14;111.67;;;31.60;;
56860;SDS011;42744;51.094;3.490;2024-03-06T05:57:39;262.97;;;40.57;;
56860;SDS011;42744;51.094;3.490;2024-03-06T06:00:11;250.50;;;40.00;;
56860;SDS011;42744;51.094;3.490;2024-03-06T06:02:38;199.90;;;39.10;;
56860;SDS011;42744;51.094;3.490;2024-03-06T06:05:04;181.00;;;36.80;;
56860;SDS011;42744;51.094;3.490;2024-03-06T06:07:38;134.23;;;32.13;;
56860;SDS011;42744;51.094;3.490;2024-03-06T06:10:04;133.43;;;32.20;;
56860;SDS011;42744;51.094;3.490;2024-03-06T06:12:35;236.00;;;39.73;;
56860;SDS011;42744;51.094;3.490;2024-03-06T06:15:01;199.83;;;37.20;;
56860;SDS011;42744;51.094;3.490;2024-03-06T06:17:28;181.50;;;34.73;;
56860;SDS011;42744;51.094;3.490;2024-03-06T06:19:53;216.67;;;36.63;;
56860;SDS011;42744;51.094;3.490;2024-03-06T06:22:19;187.30;;;35.97;;
56860;SDS011;42744;51.094;3.490;2024-03-06T06:24:46;220.27;;;36.53;;
56860;SDS011;42744;51.094;3.490;2024-03-06T06:27:12;182.10;;;35.63;;
56860;SDS011;42744;51.094;3.490;2024-03-06T06:29:38;261.90;;;41.87;;
56860;SDS011;42744;51.094;3.490;2024-03-06T06:32:04;207.23;;;36.47;;
56860;SDS011;42744;51.094;3.490;2024-03-06T06:34:30;169.27;;;35.63;;
56860;SDS011;42744;51.094;3.490;2024-03-06T06:36:57;149.63;;;33.13;;
56860;SDS011;42744;51.094;3.490;2024-03-06T06:39:23;189.67;;;36.87;;
56860;SDS011;42744;51.094;3.490;2024-03-06T06:41:49;213.80;;;39.80;;
56860;SDS011;42744;51.094;3.490;2024-03-06T06:44:15;105.27;;;32.93;;
56860;SDS011;42744;51.094;3.490;2024-03-06T06:46:41;167.80;;;39.33;;
56860;SDS011;42744;51.094;3.490;2024-03-06T06:49:08;247.60;;;37.93;;
56860;SDS011;42744;51.094;3.490;2024-03-06T06:51:34;176.60;;;36.00;;
56860;SDS011;42744;51.094;3.490;2024-03-06T06:54:01;133.60;;;35.20;;
56860;SDS011;42744;51.094;3.490;2024-03-06T06:56:29;185.27;;;37.57;;
56860;SDS011;42744;51.094;3.490;2024-03-06T06:58:56;342.57;;;46.37;;
56860;SDS011;42744;51.094;3.490;2024-03-06T07:01:22;235.63;;;41.63;;
56860;SDS011;42744;51.094;3.490;2024-03-06T07:03:48;211.33;;;40.13;;
56860;SDS011;42744;51.094;3.490;2024-03-06T07:06:14;242.40;;;42.67;;
56860;SDS011;42744;51.094;3.490;2024-03-06T07:08:42;115.37;;;33.87;;
56860;SDS011;42744;51.094;3.490;2024-03-06T07:11:08;140.80;;;38.40;;
56860;SDS011;42744;51.094;3.490;2024-03-06T07:13:37;136.60;;;36.33;;
56860;SDS011;42744;51.094;3.490;2024-03-06T07:16:03;122.90;;;35.33;;
56860;SDS011;42744;51.094;3.490;2024-03-06T07:18:30;108.97;;;36.87;;
56860;SDS011;42744;51.094;3.490;2024-03-06T07:20:58;118.03;;;37.23;;
56860;SDS011;42744;51.094;3.490;2024-03-06T07:23:25;162.23;;;38.97;;
56860;SDS011;42744;51.094;3.490;2024-03-06T07:25:51;196.07;;;40.60;;
56860;SDS011;42744;51.094;3.490;2024-03-06T07:28:17;157.23;;;36.47;;
56860;SDS011;42744;51.094;3.490;2024-03-06T07:30:43;116.37;;;35.40;;
56860;SDS011;42744;51.094;3.490;2024-03-06T07:33:09;97.27;;;33.83;;
56860;SDS011;42744;51.094;3.490;2024-03-06T07:35:35;115.07;;;33.83;;
56860;SDS011;42744;51.094;3.490;2024-03-06T07:38:02;137.57;;;34.83;;
56860;SDS011;42744;51.094;3.490;2024-03-06T07:40:32;161.07;;;37.60;;
56860;SDS011;42744;51.094;3.490;2024-03-06T07:42:58;84.47;;;33.37;;
56860;SDS011;42744;51.094;3.490;2024-03-06T07:45:25;93.80;;;33.67;;
56860;SDS011;42744;51.094;3.490;2024-03-06T07:47:52;119.60;;;36.90;;
56860;SDS011;42744;51.094;3.490;2024-03-06T07:50:21;90.27;;;34.67;;
56860;SDS011;42744;51.094;3.490;2024-03-06T07:52:48;88.73;;;34.27;;
56860;SDS011;42744;51.094;3.490;2024-03-06T07:55:14;99.47;;;35.17;;
56860;SDS011;42744;51.094;3.490;2024-03-06T07:57:40;112.23;;;34.70;;
56860;SDS011;42744;51.094;3.490;2024-03-06T08:00:07;95.27;;;36.43;;
56860;SDS011;42744;51.094;3.490;2024-03-06T08:02:40;187.90;;;39.50;;
56860;SDS011;42744;51.094;3.490;2024-03-06T08:05:12;102.10;;;34.80;;
56860;SDS011;42744;51.094;3.490;2024-03-06T08:07:39;83.27;;;33.63;;
56860;SDS011;42744;51.094;3.490;2024-03-06T08:10:10;106.07;;;34.40;;
56860;SDS011;42744;51.094;3.490;2024-03-06T08:12:42;104.47;;;35.23;;
56860;SDS011;42744;51.094;3.490;2024-03-06T08:15:10;113.23;;;32.93;;
56860;SDS011;42744;51.094;3.490;2024-03-06T08:17:40;123.83;;;35.77;;
56860;SDS011;42744;51.094;3.490;2024-03-06T08:20:09;87.23;;;33.73;;
56860;SDS011;42744;51.094;3.490;2024-03-06T08:22:37;96.27;;;35.47;;
56860;SDS011;42744;51.094;3.490;2024-03-06T08:25:07;62.57;;;30.87;;
56860;SDS011;42744;51.094;3.490;2024-03-06T08:27:38;117.70;;;37.27;;
56860;SDS011;42744;51.094;3.490;2024-03-06T08:30:06;71.83;;;32.60;;
56860;SDS011;42744;51.094;3.490;2024-03-06T08:32:33;101.23;;;34.10;;
56860;SDS011;42744;51.094;3.490;2024-03-06T08:35:10;124.80;;;33.87;;
56860;SDS011;42744;51.094;3.490;2024-03-06T08:37:37;71.33;;;33.60;;
56860;SDS011;42744;51.094;3.490;2024-03-06T08:40:04;61.53;;;31.00;;
56860;SDS011;42744;51.094;3.490;2024-03-06T08:42:42;74.70;;;31.93;;
56860;SDS011;42744;51.094;3.490;2024-03-06T08:45:09;62.30;;;30.47;;
56860;SDS011;42744;51.094;3.490;2024-03-06T08:47:36;71.57;;;31.27;;
56860;SDS011;42744;51.094;3.490;2024-03-06T08:50:02;68.37;;;29.53;;
56860;SDS011;42744;51.094;3.490;2024-03-06T08:52:29;65.30;;;30.83;;
56860;SDS011;42744;51.094;3.490;2024-03-06T08:54:58;75.10;;;30.77;;
56860;SDS011;42744;51.094;3.490;2024-03-06T08:57:24;56.03;;;28.63;;
56860;SDS011;42744;51.094;3.490;2024-03-06T08:59:59;58.47;;;29.60;;
56860;SDS011;42744;51.094;3.490;2024-03-06T09:02:25;69.37;;;31.83;;
56860;SDS011;42744;51.094;3.490;2024-03-06T09:04:52;67.47;;;29.70;;
56860;SDS011;42744;51.094;3.490;2024-03-06T09:07:18;54.20;;;28.83;;
56860;SDS011;42744;51.094;3.490;2024-03-06T09:09:49;51.20;;;29.17;;
56860;SDS011;42744;51.094;3.490;2024-03-06T09:12:16;49.23;;;28.23;;
56860;SDS011;42744;51.094;3.490;2024-03-06T09:14:43;52.83;;;30.70;;
56860;SDS011;42744;51.094;3.490;2024-03-06T09:17:10;53.17;;;29.13;;
56860;SDS011;42744;51.094;3.490;2024-03-06T09:19:40;45.87;;;27.07;;
56860;SDS011;42744;51.094;3.490;2024-03-06T09:22:07;48.03;;;28.63;;
56860;SDS011;42744;51.094;3.490;2024-03-06T09:24:33;52.63;;;28.03;;
56860;SDS011;42744;51.094;3.490;2024-03-06T09:27:04;51.00;;;28.63;;
56860;SDS011;42744;51.094;3.490;2024-03-06T09:29:34;55.70;;;29.77;;
56860;SDS011;42744;51.094;3.490;2024-03-06T09:32:03;53.20;;;28.97;;
56860;SDS011;42744;51.094;3.490;2024-03-06T09:34:37;53.50;;;29.47;;
56860;SDS011;42744;51.094;3.490;2024-03-06T09:37:09;53.57;;;29.93;;
56860;SDS011;42744;51.094;3.490;2024-03-06T09:39:36;49.83;;;28.60;;
56860;SDS011;42744;51.094;3.490;2024-03-06T09:42:09;49.17;;;27.53;;
56860;SDS011;42744;51.094;3.490;2024-03-06T09:44:36;45.37;;;27.60;;
56860;SDS011;42744;51.094;3.490;2024-03-06T09:47:03;43.87;;;26.53;;
56860;SDS011;42744;51.094;3.490;2024-03-06T09:49:30;42.00;;;25.93;;
56860;SDS011;42744;51.094;3.490;2024-03-06T09:51:56;40.00;;;25.63;;
56860;SDS011;42744;51.094;3.490;2024-03-06T09:54:24;42.30;;;26.27;;
56860;SDS011;42744;51.094;3.490;2024-03-06T09:56:52;41.90;;;27.27;;
56860;SDS011;42744;51.094;3.490;2024-03-06T09:59:20;42.40;;;27.07;;
56860;SDS011;42744;51.094;3.490;2024-03-06T10:01:56;41.80;;;26.53;;
56860;SDS011;42744;51.094;3.490;2024-03-06T10:04:26;38.97;;;25.83;;
56860;SDS011;42744;51.094;3.490;2024-03-06T10:06:54;38.40;;;25.67;;
56860;SDS011;42744;51.094;3.490;2024-03-06T10:09:20;39.73;;;26.20;;
56860;SDS011;42744;51.094;3.490;2024-03-06T10:11:47;36.87;;;26.53;;
56860;SDS011;42744;51.094;3.490;2024-03-06T10:14:14;39.07;;;25.13;;
56860;SDS011;42744;51.094;3.490;2024-03-06T10:16:56;42.17;;;26.57;;
56860;SDS011;42744;51.094;3.490;2024-03-06T10:19:25;40.10;;;25.90;;
56860;SDS011;42744;51.094;3.490;2024-03-06T10:21:53;37.90;;;25.93;;
56860;SDS011;42744;51.094;3.490;2024-03-06T10:24:23;36.87;;;25.13;;
56860;SDS011;42744;51.094;3.490;2024-03-06T10:26:50;38.63;;;24.97;;
56860;SDS011;42744;51.094;3.490;2024-03-06T10:29:20;39.97;;;24.77;;
56860;SDS011;42744;51.094;3.490;2024-03-06T10:31:47;35.87;;;25.27;;
56860;SDS011;42744;51.094;3.490;2024-03-06T10:34:14;35.30;;;24.70;;
56860;SDS011;42744;51.094;3.490;2024-03-06T10:36:41;40.40;;;25.53;;
56860;SDS011;42744;51.094;3.490;2024-03-06T10:39:08;34.23;;;24.60;;
56860;SDS011;42744;51.094;3.490;2024-03-06T10:41:43;32.60;;;24.00;;
56860;SDS011;42744;51.094;3.490;2024-03-06T10:44:11;29.63;;;22.97;;
56860;SDS011;42744;51.094;3.490;2024-03-06T10:46:44;31.70;;;23.93;;
56860;SDS011;42744;51.094;3.490;2024-03-06T10:49:13;32.27;;;23.40;;
56860;SDS011;42744;51.094;3.490;2024-03-06T10:51:41;31.50;;;22.63;;
56860;SDS011;42744;51.094;3.490;2024-03-06T10:54:08;29.23;;;22.10;;
56860;SDS011;42744;51.094;3.490;2024-03-06T10:56:38;30.03;;;22.57;;
56860;SDS011;42744;51.094;3.490;2024-03-06T10:59:08;27.80;;;21.00;;
56860;SDS011;42744;51.094;3.490;2024-03-06T11:01:37;30.73;;;22.37;;
56860;SDS011;42744;51.094;3.490;2024-03-06T11:04:04;29.27;;;21.63;;
56860;SDS011;42744;51.094;3.490;2024-03-06T11:06:31;27.50;;;21.20;;
56860;SDS011;42744;51.094;3.490;2024-03-06T11:08:58;28.10;;;20.60;;
56860;SDS011;42744;51.094;3.490;2024-03-06T11:11:25;25.83;;;19.93;;
56860;SDS011;42744;51.094;3.490;2024-03-06T11:13:55;23.53;;;18.40;;
56860;SDS011;42744;51.094;3.490;2024-03-06T11:16:28;25.87;;;19.23;;
56860;SDS011;42744;51.094;3.490;2024-03-06T11:19:05;28.43;;;18.20;;
56860;SDS011;42744;51.094;3.490;2024-03-06T11:21:32;20.80;;;18.00;;
56860;SDS011;42744;51.094;3.490;2024-03-06T11:24:12;21.00;;;17.53;;
56860;SDS011;42744;51.094;3.490;2024-03-06T11:26:42;20.67;;;17.23;;
56860;SDS011;42744;51.094;3.490;2024-03-06T11:29:09;22.43;;;17.73;;
56860;SDS011;42744;51.094;3.490;2024-03-06T11:31:34;21.90;;;17.50;;
56860;SDS011;42744;51.094;3.490;2024-03-06T11:34:01;21.67;;;17.73;;
56860;SDS011;42744;51.094;3.490;2024-03-06T11:36:30;20.43;;;16.63;;
56860;SDS011;42744;51.094;3.490;2024-03-06T11:38:56;22.00;;;17.57;;
56860;SDS011;42744;51.094;3.490;2024-03-06T11:41:24;18.73;;;15.57;;
56860;SDS011;42744;51.094;3.490;2024-03-06T11:43:54;21.90;;;18.10;;
56860;SDS011;42744;51.094;3.490;2024-03-06T11:46:22;20.77;;;16.17;;
56860;SDS011;42744;51.094;3.490;2024-03-06T11:48:55;23.47;;;16.30;;
56860;SDS011;42744;51.094;3.490;2024-03-06T11:51:24;25.47;;;18.10;;
56860;SDS011;42744;51.094;3.490;2024-03-06T11:53:51;21.23;;;17.73;;
56860;SDS011;42744;51.094;3.490;2024-03-06T11:56:19;20.53;;;16.57;;
56860;SDS011;42744;51.094;3.490;2024-03-06T11:58:46;19.87;;;17.00;;
56860;SDS011;42744;51.094;3.490;2024-03-06T12:01:13;20.07;;;16.67;;
56860;SDS011;42744;51.094;3.490;2024-03-06T12:03:41;21.83;;;18.17;;
56860;SDS011;42744;51.094;3.490;2024-03-06T12:06:07;20.10;;;16.83;;
56860;SDS011;42744;51.094;3.490;2024-03-06T12:08:33;20.83;;;15.90;;
56860;SDS011;42744;51.094;3.490;2024-03-06T12:11:03;21.77;;;15.93;;
56860;SDS011;42744;51.094;3.490;2024-03-06T12:13:30;19.10;;;15.83;;
56860;SDS011;42744;51.094;3.490;2024-03-06T12:15:56;18.30;;;15.30;;
56860;SDS011;42744;51.094;3.490;2024-03-06T12:18:24;18.60;;;15.60;;
56860;SDS011;42744;51.094;3.490;2024-03-06T12:20:50;18.40;;;15.63;;
56860;SDS011;42744;51.094;3.490;2024-03-06T12:23:22;16.77;;;14.23;;
56860;SDS011;42744;51.094;3.490;2024-03-06T12:26:01;16.03;;;14.33;;
56860;SDS011;42744;51.094;3.490;2024-03-06T12:28:32;16.47;;;13.77;;
56860;SDS011;42744;51.094;3.490;2024-03-06T12:30:58;16.97;;;13.37;;
56860;SDS011;42744;51.094;3.490;2024-03-06T12:33:28;13.57;;;11.60;;
56860;SDS011;42744;51.094;3.490;2024-03-06T12:36:03;13.73;;;11.63;;
56860;SDS011;42744;51.094;3.490;2024-03-06T12:38:32;14.17;;;10.60;;
56860;SDS011;42744;51.094;3.490;2024-03-06T12:40:58;12.83;;;8.73;;
56860;SDS011;42744;51.094;3.490;2024-03-06T12:43:25;9.67;;;8.43;;
56860;SDS011;42744;51.094;3.490;2024-03-06T12:45:52;9.83;;;8.40;;
56860;SDS011;42744;51.094;3.490;2024-03-06T12:48:23;8.73;;;7.60;;
56860;SDS011;42744;51.094;3.490;2024-03-06T12:50:51;9.57;;;7.37;;
56860;SDS011;42744;51.094;3.490;2024-03-06T12:53:20;10.63;;;7.20;;
56860;SDS011;42744;51.094;3.490;2024-03-06T12:55:46;6.70;;;5.90;;
56860;SDS011;42744;51.094;3.490;2024-03-06T12:58:13;9.80;;;7.17;;
56860;SDS011;42744;51.094;3.490;2024-03-06T13:00:40;8.87;;;7.03;;
56860;SDS011;42744;51.094;3.490;2024-03-06T13:03:06;8.80;;;6.77;;
56860;SDS011;42744;51.094;3.490;2024-03-06T13:05:32;7.77;;;6.50;;
56860;SDS011;42744;51.094;3.490;2024-03-06T13:07:59;11.47;;;7.67;;
56860;SDS011;42744;51.094;3.490;2024-03-06T13:10:25;10.77;;;6.90;;
56860;SDS011;42744;51.094;3.490;2024-03-06T13:12:51;9.80;;;7.07;;
56860;SDS011;42744;51.094;3.490;2024-03-06T13:15:17;8.67;;;6.80;;
56860;SDS011;42744;51.094;3.490;2024-03-06T13:17:43;10.53;;;7.27;;
56860;SDS011;42744;51.094;3.490;2024-03-06T13:20:09;11.70;;;7.20;;
56860;SDS011;42744;51.094;3.490;2024-03-06T13:22:37;9.93;;;7.23;;
56860;SDS011;42744;51.094;3.490;2024-03-06T13:25:03;8.33;;;6.87;;
56860;SDS011;42744;51.094;3.490;2024-03-06T13:27:30;9.57;;;6.80;;
56860;SDS011;42744;51.094;3.490;2024-03-06T13:29:56;8.40;;;7.10;;
56860;SDS011;42744;51.094;3.490;2024-03-06T13:32:23;8.63;;;6.70;;
56860;SDS011;42744;51.094;3.490;2024-03-06T13:34:49;10.13;;;6.70;;
56860;SDS011;42744;51.094;3.490;2024-03-06T13:37:16;8.00;;;6.37;;
56860;SDS011;42744;51.094;3.490;2024-03-06T13:39:42;8.00;;;6.20;;
56860;SDS011;42744;51.094;3.490;2024-03-06T13:42:08;7.23;;;5.77;;
56860;SDS011;42744;51.094;3.490;2024-03-06T13:44:37;8.10;;;6.30;;
56860;SDS011;42744;51.094;3.490;2024-03-06T13:47:03;10.73;;;7.77;;
56860;SDS011;42744;51.094;3.490;2024-03-06T13:49:36;8.43;;;6.63;;
56860;SDS011;42744;51.094;3.490;2024-03-06T13:52:06;6.97;;;6.27;;
56860;SDS011;42744;51.094;3.490;2024-03-06T13:54:38;9.33;;;6.20;;
56860;SDS011;42744;51.094;3.490;2024-03-06T13:57:08;8.90;;;7.10;;
56860;SDS011;42744;51.094;3.490;2024-03-06T13:59:34;8.13;;;5.53;;
56860;SDS011;42744;51.094;3.490;2024-03-06T14:02:01;8.47;;;5.97;;
56860;SDS011;42744;51.094;3.490;2024-03-06T14:04:28;7.90;;;5.80;;
56860;SDS011;42744;51.094;3.490;2024-03-06T14:06:56;9.07;;;6.37;;
56860;SDS011;42744;51.094;3.490;2024-03-06T14:09:25;8.27;;;5.13;;
56860;SDS011;42744;51.094;3.490;2024-03-06T14:11:52;6.00;;;5.40;;
56860;SDS011;42744;51.094;3.490;2024-03-06T14:14:19;8.50;;;5.03;;
56860;SDS011;42744;51.094;3.490;2024-03-06T14:16:46;9.13;;;4.47;;
56860;SDS011;42744;51.094;3.490;2024-03-06T14:19:12;5.17;;;4.40;;
56860;SDS011;42744;51.094;3.490;2024-03-06T14:21:39;7.60;;;4.67;;